Time;durP1;ratioP1;P1;durP2;ratioP2;P2;SDS_P1;SDS_P2;PMS_P1;PMS_P2;Temp;Humidity;BMP_temperature;BMP_pressure;BME280_temperature;BME280_humidity;BME280_pressure;Samples;Min_cycle;Max_cycle;Signal;HPM_P1;HPM_P2
2021/11/01 00:00:51;;;;;;;;;;;;;;;9.13;59.68;99640.19;4396219;32;20046;-90
2021/11/01 00:03:16;;;;;;;;;;;;;;;9.08;59.69;99642.06;4395936;32;20030;-91
2021/11/01 00:05:42;;;;;;;;;;;;;;;9.00;59.68;99637.97;4395815;32;19990;-91
2021/11/01 00:08:07;;;;;;;;;;;;;;;9.03;59.68;99632.69;4395898;32;19986;-91
2021/11/01 00:10:32;;;;;;;;;;;;;;;9.00;59.68;99632.78;4395620;32;20071;-91
2021/11/01 00:12:58;;;;;;;;;;;;;;;9.03;59.68;99640.50;4396029;32;19992;-91
2021/11/01 00:15:23;;;;;;;;;;;;;;;8.93;59.67;99622.53;4395971;32;20053;-91
2021/11/01 00:17:48;;;;;;;;;;;;;;;8.99;59.68;99628.47;4395609;32;19978;-91
2021/11/01 00:20:14;;;;;;;;;;;;;;;8.91;59.68;99629.53;4395720;32;20005;-91
2021/11/01 00:22:39;;;;;;;;;;;;;;;8.85;59.68;99624.50;4395764;32;20004;-91
2021/11/01 00:25:05;;;;;;;;;;;;;;;8.80;59.67;99626.38;4395574;32;19993;-92
2021/11/01 00:27:30;;;;;;;;;;;;;;;8.86;59.67;99630.56;4395909;32;20025;-91
2021/11/01 00:29:55;;;;;;;;;;;;;;;8.82;59.68;99632.38;4395648;32;20066;-91
2021/11/01 00:32:21;;;;;;;;;;;;;;;8.88;59.67;99624.44;4395433;32;23475;-92
2021/11/01 00:34:46;;;;;;;;;;;;;;;8.79;59.66;99624.69;4395481;32;20016;-91
2021/11/01 00:37:11;;;;;;;;;;;;;;;8.77;59.67;99623.03;4407761;32;22229;-92
2021/11/01 00:39:36;;;;;;;;;;;;;;;8.87;59.67;99622.72;4394411;32;19998;-92
2021/11/01 00:42:02;;;;;;;;;;;;;;;8.82;59.67;99622.00;4395500;32;20000;-91
2021/11/01 00:44:27;;;;;;;;;;;;;;;8.77;59.67;99621.28;4395583;32;19986;-90
2021/11/01 00:46:53;;;;;;;;;;;;;;;8.72;59.66;99619.69;4395622;32;20005;-92
2021/11/01 00:49:18;;;;;;;;;;;;;;;8.66;59.66;99622.44;4395134;32;20045;-91
2021/11/01 00:51:44;;;;;;;;;;;;;;;8.67;59.66;99614.63;4395477;32;20303;-91
2021/11/01 00:54:09;;;;;;;;;;;;;;;8.60;59.66;99615.69;4395364;32;19993;-91
2021/11/01 00:56:35;;;;;;;;;;;;;;;8.61;59.66;99613.03;4395484;32;19990;-92
2021/11/01 00:59:01;;;;;;;;;;;;;;;8.61;59.66;99605.25;4395659;32;19993;-91
2021/11/01 01:01:26;;;;;;;;;;;;;;;8.66;59.66;99601.69;4394951;32;23507;-91
2021/11/01 01:03:52;;;;;;;;;;;;;;;8.59;59.66;99593.22;4395342;32;19982;-91
2021/11/01 01:06:17;;;;;;;;;;;;;;;8.54;59.66;99592.50;4394876;32;22690;-91
2021/11/01 01:08:42;;;;;;;;;;;;;;;8.49;59.65;99599.53;4395398;32;20005;-91
2021/11/01 01:11:08;;;;;;;;;;;;;;;8.48;59.65;99601.25;4395089;32;20303;-91
2021/11/01 01:13:37;;;;;;;;;;;;;;;8.38;59.65;99589.44;4395289;32;20002;-91
2021/11/01 01:18:43;;;;;;;;;;;;;;;8.11;59.63;99593.53;4407891;32;19998;-91
2021/11/01 01:23:53;;;;;;;;;;;;;;;8.16;59.63;99591.69;4407817;32;20054;-91
2021/11/01 01:26:18;;;;;;;;;;;;;;;8.23;59.64;99582.84;4394834;32;20323;-91
2021/11/01 01:28:43;;;;;;;;;;;;;;;8.09;59.63;99584.09;4394756;32;19994;-92
2021/11/01 01:31:09;;;;;;;;;;;;;;;8.19;59.63;99575.19;4394262;32;28276;-90
2021/11/01 01:33:34;;;;;;;;;;;;;;;8.27;59.64;99578.44;4394630;32;19981;-91
2021/11/01 01:35:59;;;;;;;;;;;;;;;8.20;59.63;99572.56;4394261;32;23734;-92
2021/11/01 01:38:26;;;;;;;;;;;;;;;8.20;59.64;99567.37;4394646;32;20020;-92
2021/11/01 01:40:53;;;;;;;;;;;;;;;8.20;59.63;99558.75;4394975;32;19979;-92
2021/11/01 01:43:19;;;;;;;;;;;;;;;8.15;59.63;99564.06;4394920;32;20061;-91
2021/11/01 01:45:44;;;;;;;;;;;;;;;8.17;59.63;99567.47;4394462;32;20278;-91
2021/11/01 01:48:10;;;;;;;;;;;;;;;8.08;59.63;99565.09;4395024;32;20017;-91
2021/11/01 01:50:35;;;;;;;;;;;;;;;8.19;59.63;99560.50;4394906;32;20381;-92
2021/11/01 01:53:01;;;;;;;;;;;;;;;8.10;59.63;99559.87;4396861;32;19986;-93
2021/11/01 01:55:26;;;;;;;;;;;;;;;8.04;59.63;99560.00;4396627;32;20010;-92
2021/11/01 01:57:52;;;;;;;;;;;;;;;8.13;59.63;99554.62;4396788;32;19993;-91
2021/11/01 02:00:44;;;;;;;;;;;;;;;8.06;59.62;99553.94;4396976;32;19966;-92
2021/11/01 02:03:10;;;;;;;;;;;;;;;8.11;59.63;99549.47;4398850;32;20541;-91
2021/11/01 02:05:37;;;;;;;;;;;;;;;7.78;59.61;99556.31;4398986;32;19990;-92
2021/11/01 02:08:05;;;;;;;;;;;;;;;8.00;59.63;99549.72;4396582;32;20053;-91
2021/11/01 02:10:31;;;;;;;;;;;;;;;8.03;59.62;99546.19;4396647;32;19956;-92
2021/11/01 02:12:58;;;;;;;;;;;;;;;8.02;59.63;99544.50;4396547;32;20053;-91
2021/11/01 02:15:29;;;;;;;;;;;;;;;7.95;59.63;99550.72;4397191;32;19986;-92
2021/11/01 02:17:55;;;;;;;;;;;;;;;8.04;59.62;99544.47;4397065;32;20344;-92
2021/11/01 02:20:30;;;;;;;;;;;;;;;7.92;59.62;99543.87;4397183;32;20000;-92
2021/11/01 02:23:02;;;;;;;;;;;;;;;7.92;59.62;99536.13;4397252;32;20041;-91
2021/11/01 02:25:40;;;;;;;;;;;;;;;7.94;59.62;99536.06;4396921;32;19994;-91
2021/11/01 02:28:06;;;;;;;;;;;;;;;7.94;59.62;99533.47;4396576;32;20005;-92
2021/11/01 02:30:31;;;;;;;;;;;;;;;7.89;59.62;99525.81;4396544;32;20019;-92
2021/11/01 02:32:57;;;;;;;;;;;;;;;7.88;59.62;99529.31;4396498;32;19989;-92
2021/11/01 02:35:22;;;;;;;;;;;;;;;7.89;59.62;99538.78;4395985;32;24856;-92
2021/11/01 02:37:47;;;;;;;;;;;;;;;7.89;59.62;99531.00;4396058;32;20875;-91
2021/11/01 02:40:13;;;;;;;;;;;;;;;7.88;59.62;99525.88;4396382;32;20279;-91
2021/11/01 02:42:38;;;;;;;;;;;;;;;7.79;59.61;99533.84;4396386;32;20018;-92
2021/11/01 02:45:05;;;;;;;;;;;;;;;7.99;59.63;99526.44;4396493;32;20004;-91
2021/11/01 02:47:30;;;;;;;;;;;;;;;7.95;59.63;99525.66;4396200;32;20057;-92
2021/11/01 02:49:57;;;;;;;;;;;;;;;7.86;59.62;99520.72;4396186;32;20009;-91
2021/11/01 02:52:23;;;;;;;;;;;;;;;7.90;59.62;99521.50;4396357;32;19978;-92
2021/11/01 02:54:49;;;;;;;;;;;;;;;7.94;59.62;99518.78;4396162;32;20016;-92
2021/11/01 02:57:14;;;;;;;;;;;;;;;7.76;59.61;99523.56;4396147;32;20006;-92
2021/11/01 02:59:40;;;;;;;;;;;;;;;7.91;59.61;99518.00;4395602;32;23402;-92
2021/11/01 03:02:05;;;;;;;;;;;;;;;7.85;59.62;99518.16;4395833;32;19978;-92
2021/11/01 03:04:30;;;;;;;;;;;;;;;7.87;59.62;99504.28;4395550;32;20037;-92
2021/11/01 03:06:55;;;;;;;;;;;;;;;7.84;59.62;99500.91;4396181;32;19993;-92
2021/11/01 03:09:21;;;;;;;;;;;;;;;7.73;59.62;99498.56;4396167;32;20048;-92
2021/11/01 03:11:46;;;;;;;;;;;;;;;7.76;59.61;99502.84;4396324;32;20005;-92
2021/11/01 03:14:12;;;;;;;;;;;;;;;7.67;59.60;99503.91;4396708;32;20005;-92
2021/11/01 03:16:38;;;;;;;;;;;;;;;7.74;59.61;99496.84;4396298;32;20048;-92
2021/11/01 03:19:14;;;;;;;;;;;;;;;7.79;59.61;99492.38;4395798;32;19998;-92
2021/11/01 03:21:40;;;;;;;;;;;;;;;7.80;59.61;99499.28;4408629;32;20001;-91
2021/11/01 03:24:06;;;;;;;;;;;;;;;7.47;59.59;99490.59;4396116;32;20587;-92
2021/11/01 03:26:31;;;;;;;;;;;;;;;7.69;59.61;99487.44;4395965;32;20029;-92
2021/11/01 03:28:57;;;;;;;;;;;;;;;7.82;59.61;99481.97;4395840;32;19994;-92
2021/11/01 03:31:23;;;;;;;;;;;;;;;7.70;59.61;99478.78;4396103;32;19986;-91
2021/11/01 03:33:49;;;;;;;;;;;;;;;7.65;59.60;99483.22;4395813;32;20004;-93
2021/11/01 03:36:14;;;;;;;;;;;;;;;7.61;59.61;99476.44;4395856;32;20006;-93
2021/11/01 03:38:40;;;;;;;;;;;;;;;7.69;59.61;99476.22;4396118;32;20007;-92
2021/11/01 03:41:10;;;;;;;;;;;;;;;7.73;59.61;99489.94;4396031;32;20034;-91
2021/11/01 03:43:42;;;;;;;;;;;;;;;7.45;59.59;99492.38;4395913;32;20335;-92
2021/11/01 03:46:08;;;;;;;;;;;;;;;7.55;59.60;99479.12;4396015;32;20654;-91
2021/11/01 03:48:36;;;;;;;;;;;;;;;7.59;59.60;99483.37;4396102;32;19982;-92
2021/11/01 03:51:07;;;;;;;;;;;;;;;7.48;59.60;99475.00;4383573;32;20425;-92
2021/11/01 03:53:32;;;;;;;;;;;;;;;7.54;59.61;99474.84;4395988;32;20005;-92
2021/11/01 03:55:57;;;;;;;;;;;;;;;7.53;59.60;99474.91;4395925;32;20006;-92
2021/11/01 03:58:23;;;;;;;;;;;;;;;7.52;59.59;99468.88;4395619;32;19992;-91
2021/11/01 04:00:48;;;;;;;;;;;;;;;7.33;59.59;99473.66;4396071;32;20330;-92
2021/11/01 04:03:14;;;;;;;;;;;;;;;7.43;59.59;99458.72;4396359;32;20032;-93
2021/11/01 04:05:39;;;;;;;;;;;;;;;7.53;59.59;99457.63;4396130;32;20121;-93
2021/11/01 04:08:04;;;;;;;;;;;;;;;7.57;59.61;99458.38;4396026;32;20006;-92
2021/11/01 04:10:30;;;;;;;;;;;;;;;7.56;59.61;99461.88;4395744;32;20053;-92
2021/11/01 04:12:56;;;;;;;;;;;;;;;7.56;59.60;99467.91;4396061;32;19985;-93
2021/11/01 04:15:23;;;;;;;;;;;;;;;7.52;59.59;99460.25;4395203;32;20016;-92
2021/11/01 04:17:54;;;;;;;;;;;;;;;7.50;59.60;99465.47;4395971;32;19955;-92
2021/11/01 04:22:46;;;;;;;;;;;;;;;7.56;59.60;99454.09;4408725;32;20013;-92
2021/11/01 04:25:12;;;;;;;;;;;;;;;7.58;59.60;99455.78;4408571;32;19998;-93
2021/11/01 04:27:38;;;;;;;;;;;;;;;7.51;59.60;99451.63;4395689;32;20279;-92
2021/11/01 04:30:03;;;;;;;;;;;;;;;7.50;59.60;99451.66;4395823;32;20008;-91
2021/11/01 04:32:37;;;;;;;;;;;;;;;7.50;59.59;99446.47;4396100;32;20002;-91
2021/11/01 04:37:34;;;;;;;;;;;;;;;7.46;59.59;99448.31;4411872;32;19974;-92
2021/11/01 04:55:26;;;;;;;;;;;;;;;7.32;59.58;99425.31;4408193;32;19993;-92
2021/11/01 04:57:53;;;;;;;;;;;;;;;7.25;59.58;99416.00;4394602;32;20358;-92
2021/11/01 05:00:18;;;;;;;;;;;;;;;7.30;59.58;99415.88;4393786;32;20074;-93
2021/11/01 05:02:48;;;;;;;;;;;;;;;7.33;59.59;99419.28;4405828;32;19990;-92
2021/11/01 05:05:13;;;;;;;;;;;;;;;7.34;59.59;99417.53;4393025;32;20061;-92
2021/11/01 05:07:39;;;;;;;;;;;;;;;7.37;59.59;99417.47;4405558;32;20000;-93
2021/11/01 05:10:22;;;;;;;;;;;;;;;7.37;59.59;99420.06;4392713;32;19985;-92
2021/11/01 05:12:48;;;;;;;;;;;;;;;7.38;59.59;99419.16;4405466;32;20052;-91
2021/11/01 05:15:27;;;;;;;;;;;;;;;7.28;59.58;99415.91;4393739;32;20002;-92
2021/11/01 05:18:00;;;;;;;;;;;;;;;7.27;59.58;99419.41;4407533;32;20012;-92
2021/11/01 05:25:41;;;;;;;;;;;;;;;7.19;59.58;99423.91;4407263;32;20032;-91
2021/11/01 05:33:44;;;;;;;;;;;;;;;7.17;59.57;99422.25;4409693;32;19978;-92
2021/11/01 05:36:09;;;;;;;;;;;;;;;7.21;59.58;99416.97;4396769;32;21138;-92
2021/11/01 05:38:35;;;;;;;;;;;;;;;7.23;59.58;99420.38;4396507;32;19982;-92
2021/11/01 05:41:00;;;;;;;;;;;;;;;7.23;59.58;99422.94;4396656;32;19994;-92
2021/11/01 05:43:26;;;;;;;;;;;;;;;7.25;59.59;99417.75;4396575;32;20648;-92
2021/11/01 05:45:51;;;;;;;;;;;;;;;7.22;59.58;99423.00;4396641;32;20028;-93
2021/11/01 05:48:16;;;;;;;;;;;;;;;7.21;59.58;99427.31;4409284;32;19978;-92
2021/11/01 05:50:42;;;;;;;;;;;;;;;7.32;59.58;99422.72;4396158;32;20026;-92
2021/11/01 05:53:08;;;;;;;;;;;;;;;7.36;59.59;99421.78;4396580;32;20008;-92
2021/11/01 05:55:53;;;;;;;;;;;;;;;7.41;59.59;99423.41;4396478;32;20044;-93
2021/11/01 05:58:29;;;;;;;;;;;;;;;7.44;59.59;99426.78;4396571;32;19994;-92
2021/11/01 06:03:29;;;;;;;;;;;;;;;7.39;59.58;99426.03;4409097;32;19986;-92
2021/11/01 06:08:37;;;;;;;;;;;;;;;7.51;59.60;99423.13;4409064;32;20000;-91
2021/11/01 06:13:47;;;;;;;;;;;;;;;7.64;59.61;99428.87;4409390;32;20494;-90
2021/11/01 06:16:12;;;;;;;;;;;;;;;7.73;59.61;99439.00;4395660;32;28989;-92
2021/11/01 06:18:38;;;;;;;;;;;;;;;7.68;59.60;99433.94;4395827;32;23223;-92
2021/11/01 06:21:04;;;;;;;;;;;;;;;7.85;59.62;99430.91;4396647;32;19974;-92
2021/11/01 06:23:29;;;;;;;;;;;;;;;7.90;59.61;99438.56;4396295;32;19995;-91
2021/11/01 06:25:54;;;;;;;;;;;;;;;8.01;59.63;99439.97;4396419;32;20014;-92
2021/11/01 06:28:19;;;;;;;;;;;;;;;8.04;59.62;99431.25;4408871;32;19998;-93
2021/11/01 06:30:51;;;;;;;;;;;;;;;7.98;59.62;99428.84;4395514;32;23879;-92
2021/11/01 06:33:44;;;;;;;;;;;;;;;8.08;59.63;99426.88;4396347;32;19997;-92
2021/11/01 06:42:00;;;;;;;;;;;;;;;8.46;59.65;99429.25;4409508;32;20404;-91
2021/11/01 06:50:10;;;;;;;;;;;;;;;8.52;59.66;99436.03;4398222;32;19981;-92
2021/11/01 08:22:05;;;;;;;;;;;;;;;11.52;59.81;99363.00;4366432;32;20357;-90
2021/11/01 08:43:41;;;;;;;;;;;;;;;11.75;59.83;99354.19;4396312;32;19996;-91
2021/11/01 09:20:48;;;;;;;;;;;;;;;12.58;59.88;99322.69;4397195;32;20426;-89
2021/11/01 09:23:40;;;;;;;;;;;;;;;12.63;59.88;99325.91;4397994;32;19994;-90
2021/11/01 09:26:13;;;;;;;;;;;;;;;12.74;59.89;99326.25;4397648;32;19978;-90
2021/11/01 09:36:48;;;;;;;;;;;;;;;13.03;59.89;99296.12;4407096;32;19992;-88
2021/11/01 09:41:51;;;;;;;;;;;;;;;13.33;59.91;99288.53;4407064;32;19970;-89
2021/11/01 09:44:22;;;;;;;;;;;;;;;13.50;59.93;99285.09;4394054;32;19997;-89
2021/11/01 09:46:47;;;;;;;;;;;;;;;13.67;59.94;99289.41;4393117;32;19986;-89
2021/11/01 09:51:38;;;;;;;;;;;;;;;13.57;59.93;99272.53;4406858;32;19982;-89
2021/11/01 09:54:05;;;;;;;;;;;;;;;13.72;59.94;99275.19;4394325;32;20001;-89
2021/11/01 09:56:42;;;;;;;;;;;;;;;13.79;59.95;99268.72;4394248;32;20619;-88
2021/11/01 09:59:11;;;;;;;;;;;;;;;13.79;59.94;99271.31;4407085;32;19990;-89
2021/11/01 10:01:37;;;;;;;;;;;;;;;13.93;59.95;99257.50;4394240;32;19966;-89
2021/11/01 10:04:02;;;;;;;;;;;;;;;14.04;59.96;99256.94;4394082;32;20025;-89
2021/11/01 10:06:28;;;;;;;;;;;;;;;14.03;59.96;99252.63;4394205;32;20045;-89
2021/11/01 10:08:54;;;;;;;;;;;;;;;14.02;59.96;99257.03;4406892;32;19990;-89
2021/11/01 10:11:21;;;;;;;;;;;;;;;14.12;59.96;99241.66;4394142;32;19946;-89
2021/11/01 10:13:52;;;;;;;;;;;;;;;14.39;59.96;99234.03;4395768;32;20002;-88
2021/11/01 10:19:08;;;;;;;;;;;;;;;14.66;59.99;99242.16;4410046;32;20003;-90
2021/11/01 10:21:34;;;;;;;;;;;;;;;14.30;59.97;99230.19;4396145;32;20556;-88
2021/11/01 10:23:59;;;;;;;;;;;;;;;14.41;59.98;99233.03;4396296;32;20300;-90
2021/11/01 10:26:29;;;;;;;;;;;;;;;14.66;60.00;99226.44;4395961;32;20009;-89
2021/11/01 10:28:55;;;;;;;;;;;;;;;14.71;60.00;99222.66;4396209;32;19994;-89
2021/11/01 10:31:21;;;;;;;;;;;;;;;14.77;59.99;99223.22;4395910;32;20023;-89
2021/11/01 10:33:47;;;;;;;;;;;;;;;14.82;60.00;99215.94;4396306;32;20032;-89
2021/11/01 10:36:32;;;;;;;;;;;;;;;15.11;60.01;99209.81;4408644;32;19990;-89
2021/11/01 10:39:04;;;;;;;;;;;;;;;15.20;60.01;99211.09;4396029;32;20002;-89
2021/11/01 10:42:14;;;;;;;;;;;;;;;15.09;60.00;99200.37;4396405;32;19978;-88
2021/11/01 11:14:25;;;;;;;;;;;;;;;15.54;60.03;99155.63;4409136;32;19974;-89
2021/11/01 11:40:26;;;;;;;;;;;;;;;16.12;60.07;99125.78;4408511;32;20028;-89
2021/11/01 11:50:29;;;;;;;;;;;;;;;16.00;60.07;99100.28;4408458;32;20016;-89
2021/11/01 11:52:55;;;;;;;;;;;;;;;16.34;60.08;99100.75;4395648;32;20008;-90
2021/11/01 11:55:20;;;;;;;;;;;;;;;16.35;60.08;99100.63;4396772;32;20036;-89
2021/11/01 11:57:54;;;;;;;;;;;;;;;16.24;60.08;99085.56;4409553;32;20221;-89
2021/11/01 12:00:19;;;;;;;;;;;;;;;16.24;60.08;99095.22;4395581;32;20324;-90
2021/11/01 12:02:46;;;;;;;;;;;;;;;16.42;60.08;99099.28;4395537;32;20028;-89
2021/11/01 12:05:19;;;;;;;;;;;;;;;16.28;60.08;99099.34;4395581;32;20000;-90
2021/11/01 12:07:45;;;;;;;;;;;;;;;16.05;60.07;99092.94;4395622;32;19986;-89
2021/11/01 12:10:13;;;;;;;;;;;;;;;16.24;60.08;99096.06;4395356;32;20006;-90
2021/11/01 12:17:54;;;;;;;;;;;;;;;16.55;60.09;99076.47;4408393;32;20016;-89
2021/11/01 12:20:21;;;;;;;;;;;;;;;16.75;60.10;99069.91;4395157;32;20042;-89
2021/11/01 12:22:49;;;;;;;;;;;;;;;16.59;60.09;99066.62;4395470;32;20014;-89
2021/11/01 12:25:16;;;;;;;;;;;;;;;16.73;60.10;99068.34;4407827;32;19988;-89
2021/11/01 12:27:43;;;;;;;;;;;;;;;16.69;60.10;99059.81;4394868;32;19981;-89
2021/11/01 12:30:10;;;;;;;;;;;;;;;16.61;60.09;99066.53;4394589;32;19990;-90
2021/11/01 12:32:36;;;;;;;;;;;;;;;16.74;60.10;99065.59;4394888;32;19990;-90
2021/11/01 12:35:11;;;;;;;;;;;;;;;16.93;60.11;99053.84;4407237;32;20414;-88
2021/11/01 12:37:41;;;;;;;;;;;;;;;16.83;60.11;99046.59;4395182;32;20000;-89
2021/11/01 12:40:14;;;;;;;;;;;;;;;17.03;60.12;99039.09;4395344;32;19986;-90
2021/11/01 12:59:12;;;;;;;;;;;;;;;17.09;60.13;99031.66;4407945;32;19981;-90
2021/11/01 13:01:45;;;;;;;;;;;;;;;16.99;60.11;99027.13;4394833;32;20036;-90
2021/11/01 13:04:22;;;;;;;;;;;;;;;16.86;60.11;99020.09;4394969;32;20398;-89
2021/11/01 13:07:03;;;;;;;;;;;;;;;17.13;60.12;99013.84;4394852;32;20350;-89
2021/11/01 13:09:32;;;;;;;;;;;;;;;16.87;60.11;99007.78;4395100;32;19969;-90
2021/11/01 13:20:13;;;;;;;;;;;;;;;16.75;60.10;99001.59;4389400;32;20032;-89
2021/11/01 13:22:43;;;;;;;;;;;;;;;17.08;60.13;98998.41;4393694;32;28569;-90
2021/11/01 13:27:52;;;;;;;;;;;;;;;17.12;60.12;98986.72;4406973;32;20270;-89
2021/11/01 13:36:10;;;;;;;;;;;;;;;17.05;60.13;98984.66;4407210;32;20656;-90
2021/11/01 13:38:34;;;;;;;;;;;;;;;17.17;60.13;98974.06;4407887;32;20078;-90
2021/11/01 13:40:59;;;;;;;;;;;;;;;16.99;60.12;98969.28;4394604;32;20374;-89
2021/11/01 13:43:26;;;;;;;;;;;;;;;16.94;60.12;98974.03;4394696;32;20009;-89
2021/11/01 13:45:52;;;;;;;;;;;;;;;17.15;60.13;98968.09;4394748;32;20632;-89
2021/11/01 13:48:23;;;;;;;;;;;;;;;17.24;60.14;98968.38;4395440;32;19991;-89
2021/11/01 13:50:48;;;;;;;;;;;;;;;17.22;60.13;98967.66;4396468;32;20024;-89
2021/11/01 13:53:16;;;;;;;;;;;;;;;17.22;60.13;98968.47;4395706;32;27585;-89
2021/11/01 13:58:23;;;;;;;;;;;;;;;17.30;60.13;98981.94;4409336;32;20356;-89
2021/11/01 14:01:26;;;;;;;;;;;;;;;17.24;60.14;98976.25;4396411;32;19996;-89
2021/11/01 14:11:59;;;;;;;;;;;;;;;17.42;60.14;98962.63;4410349;32;19997;-90
2021/11/01 14:14:50;;;;;;;;;;;;;;;17.33;60.14;98963.31;4396276;32;20010;-89
2021/11/01 14:17:47;;;;;;;;;;;;;;;17.22;60.13;98957.97;4396076;32;20372;-89
2021/11/01 14:57:57;;;;;;;;;;;;;;;17.14;60.13;98955.88;4408810;32;20040;-89
2021/11/01 15:00:15;;;;;;;;;;;;;;;17.09;60.13;98958.00;4407255;32;20012;-89
2021/11/01 15:29:07;;;;;;;;;;;;;;;16.87;60.11;98934.19;4408696;32;19986;-89
2021/11/01 15:43:06;;;;;;;;;;;;;;;16.68;60.10;98912.78;4408896;32;19994;-89
2021/11/01 16:20:47;;;;;;;;;;;;;;;16.30;60.08;98886.50;4391333;32;19978;-89
2021/11/01 16:25:41;;;;;;;;;;;;;;;16.19;60.08;98888.09;4408318;32;20013;-88
2021/11/01 16:28:06;;;;;;;;;;;;;;;16.19;60.08;98872.34;4395587;32;20290;-88
2021/11/01 16:30:33;;;;;;;;;;;;;;;16.15;60.07;98880.53;4395167;32;20019;-89
2021/11/01 16:33:06;;;;;;;;;;;;;;;16.20;60.08;98871.41;4395535;32;20321;-89
2021/11/01 16:35:54;;;;;;;;;;;;;;;15.98;60.06;98881.69;4395498;32;20045;-90
2021/11/01 16:38:23;;;;;;;;;;;;;;;16.15;60.07;98870.88;4390808;32;19996;-89
2021/11/01 16:40:48;;;;;;;;;;;;;;;16.18;60.08;98869.81;4395431;32;20426;-89
2021/11/01 16:43:15;;;;;;;;;;;;;;;16.16;60.08;98869.09;4394876;32;24360;-89
2021/11/01 16:45:41;;;;;;;;;;;;;;;16.21;60.08;98874.88;4395293;32;20002;-90
2021/11/01 16:48:07;;;;;;;;;;;;;;;16.11;60.08;98874.66;4408231;32;19994;-90
2021/11/01 16:50:33;;;;;;;;;;;;;;;15.95;60.07;98869.62;4396008;32;20039;-89
2021/11/01 16:52:58;;;;;;;;;;;;;;;15.97;60.06;98864.25;4395329;32;19998;-90
2021/11/01 16:55:28;;;;;;;;;;;;;;;16.07;60.08;98862.66;4396044;32;20013;-89
2021/11/01 16:57:56;;;;;;;;;;;;;;;15.94;60.07;98874.97;4396452;32;19961;-90
2021/11/01 17:00:37;;;;;;;;;;;;;;;16.00;60.08;98871.91;4409473;32;20052;-90
2021/11/01 17:24:08;;;;;;;;;;;;;;;15.87;60.06;98889.47;4409981;32;20014;-90
2021/11/01 17:34:44;;;;;;;;;;;;;;;15.89;60.06;98880.53;4409501;32;20013;-90
2021/11/01 17:37:15;;;;;;;;;;;;;;;15.86;60.06;98874.66;4409509;32;20040;-89
2021/11/01 18:53:08;;;;;;;;;;;;;;;15.38;60.03;98832.38;4409688;32;20005;-90
2021/11/01 18:55:33;;;;;;;;;;;;;;;15.29;60.02;98828.56;4396521;32;19998;-90
2021/11/01 18:57:59;;;;;;;;;;;;;;;15.34;60.03;98831.69;4397112;32;19992;-90
2021/11/01 19:00:24;;;;;;;;;;;;;;;15.42;60.04;98833.00;4396970;32;20533;-90
2021/11/01 19:02:50;;;;;;;;;;;;;;;15.30;60.03;98838.09;4397836;32;20024;-90
2021/11/01 20:05:03;;;;;;;;;;;;;;;15.10;60.02;98783.50;4408761;32;19990;-89
2021/11/01 20:10:53;;;;;;;;;;;;;;;14.93;60.01;98789.87;4409006;32;19977;-90
2021/11/01 21:25:05;;;;;;;;;;;;;;;14.42;59.98;98742.47;4410237;32;20191;-91
2021/11/01 21:27:34;;;;;;;;;;;;;;;14.36;59.98;98744.63;4409924;32;19978;-90
2021/11/01 21:29:59;;;;;;;;;;;;;;;14.49;59.99;98742.13;4396307;32;19992;-92
2021/11/01 21:32:24;;;;;;;;;;;;;;;14.30;59.97;98751.09;4397552;32;19981;-92
2021/11/01 21:37:42;;;;;;;;;;;;;;;14.63;60.00;98747.31;4408156;32;19979;-88
2021/11/01 21:40:09;;;;;;;;;;;;;;;14.61;59.99;98742.16;4393948;32;19974;-85
2021/11/01 21:42:35;;;;;;;;;;;;;;;14.63;59.98;98742.91;4405858;32;19987;-85
2021/11/01 21:45:00;;;;;;;;;;;;;;;14.35;59.98;98735.09;4406149;32;20350;-85
2021/11/01 21:47:26;;;;;;;;;;;;;;;14.21;59.97;98729.91;4394447;32;19996;-86
2021/11/01 21:49:51;;;;;;;;;;;;;;;14.47;59.98;98725.69;4392683;32;20296;-86
2021/11/01 21:52:17;;;;;;;;;;;;;;;14.30;59.97;98734.56;4393399;32;19982;-87
2021/11/01 21:54:48;;;;;;;;;;;;;;;14.28;59.97;98725.97;4393897;32;20014;-86
2021/11/01 21:57:21;;;;;;;;;;;;;;;14.27;59.97;98722.50;4407417;32;20104;-86
2021/11/01 22:18:35;;;;;;;;;;;;;;;13.95;59.96;98672.19;4408776;32;19989;-87
2021/11/01 22:21:10;;;;;;;;;;;;;;;14.00;59.95;98674.53;4409063;32;19967;-87
2021/11/01 22:24:00;;;;;;;;;;;;;;;13.75;59.94;98678.69;4396184;32;19989;-87
2021/11/01 22:42:25;;;;;;;;;;;;;;;13.77;59.94;98668.13;4408969;32;19997;-87
2021/11/01 22:55:43;;;;;;;;;;;;;;;13.96;59.96;98612.84;4408906;32;20121;-89
2021/11/01 22:58:09;;;;;;;;;;;;;;;13.96;59.95;98612.84;4396264;32;19981;-87
2021/11/01 23:00:43;;;;;;;;;;;;;;;13.92;59.95;98599.13;4396063;32;20319;-85
2021/11/01 23:03:14;;;;;;;;;;;;;;;13.90;59.95;98603.63;4394711;32;20074;-86
2021/11/01 23:32:49;;;;;;;;;;;;;;;13.31;59.92;98570.78;4408535;32;19996;-86
2021/11/01 23:35:14;;;;;;;;;;;;;;;13.41;59.92;98569.28;4409066;32;27725;-87
2021/11/01 23:37:39;;;;;;;;;;;;;;;13.42;59.93;98566.56;4395665;32;20198;-86
2021/11/01 23:40:05;;;;;;;;;;;;;;;13.32;59.92;98565.47;4408615;32;25820;-87
2021/11/01 23:42:30;;;;;;;;;;;;;;;13.29;59.91;98557.81;4409257;32;20001;-87
2021/11/01 23:44:55;;;;;;;;;;;;;;;13.26;59.91;98554.56;4396543;32;20395;-88
2021/11/01 23:47:22;;;;;;;;;;;;;;;13.35;59.92;98556.59;4409952;32;19997;-88
2021/11/01 23:49:47;;;;;;;;;;;;;;;13.18;59.92;98550.63;4396179;32;19991;-87
2021/11/01 23:52:13;;;;;;;;;;;;;;;12.99;59.90;98559.63;4396330;32;20038;-88
2021/11/01 23:54:45;;;;;;;;;;;;;;;13.03;59.91;98553.31;4396020;32;19999;-88
2021/11/01 23:57:11;;;;;;;;;;;;;;;13.10;59.90;98546.78;4396034;32;19978;-87
2021/11/01 23:59:36;;;;;;;;;;;;;;;13.13;59.91;98546.59;4396446;32;20002;-87
